createdAt,value
2018-01-31T01:52:21.109Z,0.00
2018-01-31T01:52:59.807Z,0.00
2018-01-31T01:53:59.829Z,0.00
2018-01-31T01:54:59.850Z,0.00
2018-01-31T01:55:59.868Z,0.00
2018-01-31T01:56:59.882Z,0.00
2018-01-31T01:57:59.901Z,0.00
2018-01-31T01:58:59.920Z,0.00
2018-01-31T01:59:59.935Z,0.00
2018-01-31T02:00:59.946Z,0.00
2018-01-31T02:01:59.968Z,0.00
2018-01-31T02:02:59.988Z,0.00
2018-01-31T02:04:00.007Z,0.00
2018-01-31T02:05:00.033Z,0.00
2018-01-31T02:06:00.039Z,0.00
2018-01-31T02:07:00.066Z,0.00
2018-01-31T02:08:00.076Z,0.00
2018-01-31T02:09:00.092Z,0.00
2018-01-31T02:10:00.111Z,0.00
2018-01-31T02:11:00.128Z,0.00
2018-01-31T02:12:00.145Z,0.00
2018-01-31T02:13:00.164Z,0.00
2018-01-31T02:14:00.186Z,0.00
2018-01-31T02:15:00.214Z,0.00
2018-01-31T02:16:00.215Z,0.00
2018-01-31T02:17:00.234Z,0.00
2018-01-31T02:18:00.252Z,0.00
2018-01-31T02:19:00.274Z,0.00
2018-01-31T02:20:00.294Z,0.00
2018-01-31T02:21:00.300Z,0.00
2018-01-31T02:22:00.324Z,0.00
2018-01-31T02:23:00.339Z,0.00
2018-01-31T02:24:00.359Z,0.00
2018-01-31T02:25:00.387Z,0.00
2018-01-31T02:26:00.401Z,0.00
2018-01-31T02:27:00.412Z,0.00
2018-01-31T02:28:00.430Z,0.00
2018-01-31T02:29:00.447Z,0.00
2018-01-31T02:30:00.464Z,0.00
2018-01-31T02:31:00.479Z,0.00
2018-01-31T02:32:00.505Z,0.00
2018-01-31T02:33:00.517Z,0.00
2018-01-31T02:34:00.536Z,0.00
2018-01-31T02:35:00.554Z,0.00
2018-01-31T02:36:00.575Z,0.00
2018-01-31T02:37:00.611Z,0.00
2018-01-31T02:38:00.605Z,0.00
2018-01-31T02:39:00.628Z,0.00
2018-01-31T02:40:00.643Z,0.00
2018-01-31T02:41:00.664Z,0.00
2018-01-31T02:42:00.674Z,0.00
2018-01-31T02:43:00.696Z,0.00
2018-01-31T02:44:00.717Z,0.00
2018-01-31T02:45:00.742Z,0.00
2018-01-31T02:46:00.752Z,0.00
2018-01-31T02:47:00.768Z,0.00
2018-01-31T02:48:00.789Z,0.00
2018-01-31T02:49:00.805Z,0.00
2018-01-31T02:50:00.826Z,0.00
2018-01-31T02:51:00.843Z,0.00
2018-01-31T02:52:00.859Z,0.00
2018-01-31T02:53:00.872Z,0.00
2018-01-31T02:54:00.896Z,0.00
2018-01-31T02:55:00.913Z,0.00
2018-01-31T02:56:00.958Z,0.00
2018-01-31T02:57:00.958Z,0.00
2018-01-31T02:58:00.967Z,0.00
2018-01-31T02:59:00.985Z,0.00
2018-01-31T03:00:01.007Z,0.00
2018-01-31T03:01:01.019Z,0.00
2018-01-31T03:02:01.038Z,0.00
2018-01-31T03:03:01.053Z,0.00
2018-01-31T03:04:01.076Z,0.00
2018-01-31T03:05:01.092Z,0.00
2018-01-31T03:06:01.104Z,0.00
2018-01-31T03:07:01.129Z,0.00
2018-01-31T03:08:01.148Z,0.00
2018-01-31T03:09:01.161Z,0.00
2018-01-31T03:10:01.182Z,0.00
2018-01-31T03:11:01.202Z,0.00
2018-01-31T03:12:01.219Z,0.00
2018-01-31T03:13:01.233Z,0.00
2018-01-31T03:14:01.256Z,0.00
2018-01-31T03:15:01.272Z,0.00
2018-01-31T03:16:01.290Z,0.00
2018-01-31T03:17:01.313Z,0.00
2018-01-31T03:18:01.323Z,0.00
2018-01-31T03:19:01.343Z,0.00
2018-01-31T03:20:01.362Z,0.00
2018-01-31T03:21:01.381Z,0.00
2018-01-31T03:22:01.398Z,0.00
2018-01-31T03:23:01.419Z,0.00
2018-01-31T03:24:01.442Z,0.00
2018-01-31T03:25:01.452Z,0.00
2018-01-31T03:26:01.468Z,0.00
2018-01-31T03:27:01.486Z,0.00
2018-01-31T03:28:01.504Z,0.00
2018-01-31T03:29:01.520Z,0.00
2018-01-31T03:30:01.544Z,0.00
2018-01-31T03:31:01.559Z,0.00
2018-01-31T03:32:01.582Z,0.00
2018-01-31T03:33:01.594Z,0.00
2018-01-31T03:34:01.607Z,0.00
2018-01-31T03:35:01.630Z,0.00
2018-01-31T03:36:01.649Z,0.00
2018-01-31T03:37:01.674Z,0.00
2018-01-31T03:38:01.699Z,0.00
2018-01-31T03:39:01.705Z,0.00
2018-01-31T03:40:01.722Z,0.00
2018-01-31T03:41:01.744Z,0.00
2018-01-31T03:42:01.755Z,0.00
2018-01-31T03:43:01.774Z,0.00
2018-01-31T03:44:01.798Z,0.00
2018-01-31T03:45:01.814Z,0.00
2018-01-31T03:46:01.829Z,0.00
2018-01-31T03:47:01.846Z,0.00
2018-01-31T03:48:01.870Z,0.00
2018-01-31T03:49:01.909Z,0.00
2018-01-31T03:50:01.903Z,0.00
2018-01-31T03:51:01.922Z,0.00
2018-01-31T03:52:01.939Z,0.00
2018-01-31T03:53:01.954Z,0.00
2018-01-31T03:54:01.971Z,0.00
2018-01-31T03:55:02.026Z,0.00
2018-01-31T03:56:02.015Z,0.00
2018-01-31T03:57:02.027Z,0.00
2018-01-31T03:58:02.046Z,0.00
2018-01-31T03:59:02.063Z,0.00
2018-01-31T04:00:02.085Z,0.00
2018-01-31T04:01:02.099Z,0.00
2018-01-31T04:02:02.126Z,0.00
2018-01-31T04:03:02.134Z,0.00
2018-01-31T04:04:02.156Z,0.00
2018-01-31T04:05:02.172Z,0.00
2018-01-31T04:06:02.190Z,0.00
2018-01-31T04:07:02.219Z,0.00
2018-01-31T04:08:02.228Z,0.00
2018-01-31T04:09:02.259Z,0.00
2018-01-31T04:10:02.265Z,0.00
2018-01-31T04:11:02.285Z,0.00
2018-01-31T04:12:02.300Z,0.00
2018-01-31T04:13:02.312Z,0.00
2018-01-31T04:14:02.338Z,0.00
2018-01-31T04:15:02.355Z,0.00
2018-01-31T04:16:02.367Z,0.00
2018-01-31T04:17:02.396Z,0.00
2018-01-31T04:18:02.405Z,0.00
2018-01-31T04:19:02.426Z,0.00
2018-01-31T04:20:02.447Z,0.00
2018-01-31T04:21:02.465Z,0.00
2018-01-31T04:22:02.480Z,0.00
2018-01-31T04:23:02.499Z,0.00
2018-01-31T04:24:02.518Z,0.00
2018-01-31T04:25:02.534Z,0.00
2018-01-31T04:26:02.560Z,0.00
2018-01-31T04:27:02.568Z,0.00
2018-01-31T04:28:02.599Z,0.00
2018-01-31T04:29:02.608Z,0.00
2018-01-31T04:30:02.628Z,0.00
2018-01-31T04:31:02.644Z,0.00
2018-01-31T04:32:02.673Z,0.00
2018-01-31T04:33:02.682Z,0.00
2018-01-31T04:34:02.697Z,0.00
2018-01-31T04:35:02.720Z,0.00
2018-01-31T04:36:02.733Z,0.00
2018-01-31T04:37:02.757Z,0.00
2018-01-31T04:38:02.771Z,0.00
2018-01-31T04:39:02.789Z,0.00
2018-01-31T04:40:02.805Z,0.00
2018-01-31T04:41:02.822Z,0.00
2018-01-31T04:42:02.839Z,0.00
2018-01-31T04:43:02.875Z,0.00
2018-01-31T04:44:02.887Z,0.00
2018-01-31T04:45:02.899Z,0.00
2018-01-31T04:46:02.918Z,0.00
2018-01-31T04:47:02.936Z,0.00
2018-01-31T04:48:02.954Z,0.00
2018-01-31T04:49:02.970Z,0.00
2018-01-31T04:50:02.991Z,0.00
2018-01-31T04:51:03.009Z,0.00
2018-01-31T04:52:03.025Z,0.00
2018-01-31T04:53:03.039Z,0.00
2018-01-31T04:54:03.062Z,0.00
2018-01-31T04:55:03.075Z,0.00
2018-01-31T04:56:03.098Z,0.00
2018-01-31T04:57:03.116Z,0.00
2018-01-31T04:58:03.135Z,0.00
2018-01-31T04:59:03.150Z,0.00
2018-01-31T05:00:03.181Z,0.00
2018-01-31T05:01:03.186Z,0.00
2018-01-31T05:02:03.207Z,0.00
2018-01-31T05:03:03.226Z,0.00
2018-01-31T05:04:03.243Z,0.00
2018-01-31T05:05:03.260Z,0.00
2018-01-31T05:06:03.281Z,0.00
2018-01-31T05:07:03.303Z,0.00
2018-01-31T05:08:03.319Z,0.00
2018-01-31T05:09:03.357Z,0.00
2018-01-31T05:10:03.348Z,0.00
2018-01-31T05:11:03.377Z,0.00
2018-01-31T05:12:03.386Z,0.00
2018-01-31T05:13:03.407Z,0.00
2018-01-31T05:14:03.424Z,0.00
2018-01-31T05:15:03.443Z,0.00
2018-01-31T05:16:03.464Z,0.00
2018-01-31T05:17:03.476Z,0.00
2018-01-31T05:18:03.499Z,0.00
2018-01-31T05:19:03.522Z,0.00
2018-01-31T05:20:03.537Z,0.00
2018-01-31T05:21:03.557Z,0.00
2018-01-31T05:22:03.576Z,0.00
2018-01-31T05:23:03.590Z,0.00
2018-01-31T05:24:03.610Z,0.00
2018-01-31T05:25:03.628Z,0.00
2018-01-31T05:26:03.679Z,0.00
2018-01-31T05:27:03.664Z,0.00
2018-01-31T05:28:03.680Z,0.00
2018-01-31T05:29:03.699Z,0.00
2018-01-31T05:30:03.717Z,0.00
2018-01-31T05:31:03.742Z,0.00
2018-01-31T05:32:03.760Z,0.00
2018-01-31T05:33:03.771Z,0.00
2018-01-31T05:34:03.788Z,0.00
2018-01-31T05:35:03.808Z,0.00
2018-01-31T05:36:03.826Z,0.00
2018-01-31T05:37:03.844Z,0.00
2018-01-31T05:38:03.864Z,0.00
2018-01-31T05:39:03.882Z,0.00
2018-01-31T05:40:03.900Z,0.00
2018-01-31T05:41:03.952Z,0.00
2018-01-31T05:42:03.935Z,0.00
2018-01-31T05:43:03.953Z,0.00
2018-01-31T05:44:03.972Z,0.00
2018-01-31T05:45:03.998Z,0.00
2018-01-31T05:46:04.043Z,0.00
2018-01-31T05:47:04.026Z,0.00
2018-01-31T05:48:04.049Z,0.00
2018-01-31T05:49:04.062Z,0.00
2018-01-31T05:50:04.080Z,0.00
2018-01-31T05:51:04.099Z,0.00
2018-01-31T05:52:04.126Z,0.00
2018-01-31T05:53:04.135Z,0.00
2018-01-31T05:54:04.152Z,0.00
2018-01-31T05:55:04.181Z,0.00
2018-01-31T05:56:04.199Z,0.00
2018-01-31T05:57:04.207Z,0.00
2018-01-31T05:58:04.230Z,0.00
2018-01-31T05:59:04.246Z,0.00
2018-01-31T06:00:04.263Z,0.00
2018-01-31T06:01:04.283Z,0.00
2018-01-31T06:02:04.294Z,0.00
2018-01-31T06:03:04.314Z,0.00
2018-01-31T06:04:04.335Z,0.00
2018-01-31T06:05:04.352Z,0.00
2018-01-31T06:06:04.365Z,0.00
2018-01-31T06:07:04.390Z,0.00
2018-01-31T06:08:04.407Z,0.00
2018-01-31T06:09:04.424Z,0.00
2018-01-31T06:10:04.443Z,0.00
2018-01-31T06:11:04.463Z,0.00
2018-01-31T06:12:04.478Z,0.00
2018-01-31T06:13:04.497Z,0.00
2018-01-31T06:14:04.514Z,0.00
2018-01-31T06:15:04.530Z,0.00
2018-01-31T06:16:04.587Z,0.00
2018-01-31T06:17:04.570Z,0.00
2018-01-31T06:18:04.591Z,0.00
2018-01-31T06:19:04.603Z,0.00
2018-01-31T06:20:04.627Z,0.00
2018-01-31T06:21:04.654Z,0.00
2018-01-31T06:22:04.659Z,0.00
2018-01-31T06:23:04.679Z,0.00
2018-01-31T06:24:04.697Z,0.00
2018-01-31T06:25:04.713Z,0.00
2018-01-31T06:26:04.734Z,0.00
2018-01-31T06:27:04.758Z,0.00
2018-01-31T06:28:04.771Z,0.00
2018-01-31T06:29:04.790Z,0.00
2018-01-31T06:30:04.806Z,0.00
2018-01-31T06:31:04.824Z,0.00
2018-01-31T06:32:04.843Z,0.00
2018-01-31T06:33:04.859Z,0.00
2018-01-31T06:34:04.876Z,0.00
2018-01-31T06:35:04.896Z,0.00
2018-01-31T06:36:04.913Z,0.00
2018-01-31T06:37:04.929Z,0.00
2018-01-31T06:38:04.946Z,0.00
2018-01-31T06:39:04.971Z,0.00
2018-01-31T06:40:04.990Z,0.00
2018-01-31T06:41:05.013Z,0.00
2018-01-31T06:42:05.021Z,0.00
2018-01-31T06:43:05.037Z,0.00
2018-01-31T06:44:05.063Z,0.00
2018-01-31T06:45:05.072Z,0.00
2018-01-31T06:46:05.095Z,0.00
2018-01-31T06:47:05.113Z,0.00
2018-01-31T06:48:05.132Z,0.00
2018-01-31T06:49:05.150Z,0.00
2018-01-31T06:50:05.167Z,0.00
2018-01-31T06:51:05.182Z,0.00
2018-01-31T06:52:05.202Z,0.00
2018-01-31T06:53:05.222Z,4.00
2018-01-31T06:54:05.240Z,4.00
2018-01-31T06:55:05.254Z,4.00
2018-01-31T06:56:05.274Z,4.00
2018-01-31T06:57:05.295Z,0.00
2018-01-31T06:58:05.314Z,4.00
2018-01-31T06:59:05.331Z,4.00
2018-01-31T07:00:05.352Z,4.00
2018-01-31T07:01:05.361Z,4.00
2018-01-31T07:02:05.381Z,4.00
2018-01-31T07:03:05.401Z,8.00
2018-01-31T07:04:05.417Z,8.00
2018-01-31T07:05:05.482Z,12.00
2018-01-31T07:06:05.455Z,12.00
2018-01-31T07:07:05.569Z,12.00
2018-01-31T07:08:05.496Z,12.00
2018-01-31T07:09:05.515Z,16.00
2018-01-31T07:10:05.534Z,16.00
2018-01-31T07:11:05.551Z,20.00
2018-01-31T07:12:05.570Z,20.00
2018-01-31T07:13:05.594Z,20.00
2018-01-31T07:14:05.624Z,24.00
2018-01-31T07:15:05.627Z,20.00
2018-01-31T07:16:05.691Z,24.00
2018-01-31T07:17:05.662Z,20.00
2018-01-31T07:18:05.719Z,28.00
2018-01-31T07:19:05.696Z,24.00
2018-01-31T07:20:05.717Z,28.00
2018-01-31T07:21:05.733Z,28.00
2018-01-31T07:22:05.755Z,36.00
2018-01-31T07:23:05.766Z,36.00
2018-01-31T07:24:05.784Z,40.00
2018-01-31T07:25:05.802Z,48.00
2018-01-31T07:26:05.855Z,56.00
2018-01-31T07:27:05.842Z,60.00
2018-01-31T07:28:05.858Z,68.00
2018-01-31T07:29:05.872Z,92.00
2018-01-31T07:30:05.890Z,80.00
2018-01-31T07:31:05.909Z,80.00
2018-01-31T07:32:05.928Z,104.00
2018-01-31T07:33:05.949Z,84.00
2018-01-31T07:35:46.889Z,88.00
2018-01-31T07:36:46.973Z,80.00
2018-01-31T07:38:39.835Z,96.00
2018-01-31T07:39:39.814Z,104.00
2018-01-31T07:41:32.744Z,108.00
2018-01-31T07:42:32.801Z,104.00
2018-01-31T07:44:25.705Z,104.00
2018-01-31T07:45:25.695Z,112.00
2018-01-31T07:47:18.616Z,124.00
2018-01-31T07:48:18.629Z,124.00
2018-01-31T07:50:12.063Z,120.00
2018-01-31T07:51:12.061Z,120.00
2018-01-31T07:53:04.986Z,112.00
2018-01-31T07:54:05.023Z,112.00
2018-01-31T07:55:58.032Z,120.00
2018-01-31T07:56:57.953Z,132.00
2018-01-31T07:58:50.872Z,140.00
2018-01-31T07:59:50.896Z,148.00
2018-01-31T08:01:43.859Z,148.00
2018-01-31T08:02:43.845Z,164.00
2018-01-31T08:04:36.813Z,160.00
2018-01-31T08:05:36.806Z,148.00
2018-01-31T08:07:29.753Z,128.00
2018-01-31T08:08:29.753Z,160.00
2018-01-31T08:10:22.695Z,152.00
2018-01-31T08:11:22.699Z,160.00
2018-01-31T08:13:15.716Z,164.00
2018-01-31T08:14:15.655Z,236.00
2018-01-31T08:16:08.604Z,232.00
2018-01-31T08:17:08.580Z,244.00
2018-01-31T08:19:01.526Z,260.00
2018-01-31T08:20:01.707Z,248.00
2018-01-31T08:21:54.482Z,360.00
2018-01-31T08:22:54.488Z,416.00
2018-01-31T08:24:47.434Z,380.00
2018-01-31T08:25:47.412Z,392.00
2018-01-31T08:27:40.353Z,356.00
2018-01-31T08:28:40.348Z,368.00
2018-01-31T08:30:33.297Z,348.00
2018-01-31T08:31:33.301Z,308.00
2018-01-31T08:33:26.237Z,392.00
2018-01-31T08:34:26.241Z,400.00
2018-01-31T08:36:19.185Z,480.00
2018-01-31T08:37:19.168Z,512.00
2018-01-31T08:39:12.104Z,600.00
2018-01-31T08:40:12.112Z,580.00
2018-01-31T08:42:05.053Z,508.00
2018-01-31T08:43:05.040Z,424.00
2018-01-31T08:44:57.973Z,592.00
2018-01-31T08:45:57.987Z,520.00
2018-01-31T08:47:50.975Z,456.00
2018-01-31T08:48:50.933Z,448.00
2018-01-31T08:50:43.859Z,388.00
2018-01-31T08:51:43.873Z,376.00
2018-01-31T08:53:36.840Z,336.00
2018-01-31T08:54:36.817Z,348.00
2018-01-31T08:56:29.762Z,312.00
2018-01-31T08:57:29.758Z,320.00
2018-01-31T08:59:22.693Z,348.00
2018-01-31T09:00:22.704Z,380.00
2018-01-31T09:02:15.666Z,524.00
2018-01-31T09:03:15.663Z,604.00
2018-01-31T09:05:08.619Z,524.00
2018-01-31T09:06:08.599Z,480.00
2018-01-31T09:08:01.542Z,484.00
2018-01-31T09:09:01.535Z,404.00
2018-01-31T09:10:54.505Z,424.00
2018-01-31T09:11:54.531Z,388.00
2018-01-31T09:13:47.426Z,484.00
2018-01-31T09:14:47.415Z,532.00
2018-01-31T09:16:40.367Z,500.00
2018-01-31T09:17:40.354Z,508.00
2018-01-31T09:19:33.302Z,512.00
2018-01-31T09:20:33.372Z,496.00
2018-01-31T09:22:26.770Z,480.00
2018-01-31T09:23:26.851Z,480.00
2018-01-31T09:25:19.861Z,556.00
2018-01-31T09:26:19.694Z,608.00
2018-01-31T09:28:12.742Z,760.00
2018-01-31T09:29:12.646Z,804.00
2018-01-31T09:31:05.666Z,888.00
2018-01-31T09:32:05.584Z,1064.00
2018-01-31T09:33:05.647Z,1104.00
2018-01-31T09:34:05.630Z,1056.00
2018-01-31T09:35:05.646Z,1108.00
2018-01-31T09:36:05.667Z,1300.00
2018-01-31T09:37:06.002Z,1260.00
2018-01-31T09:38:05.693Z,1312.00
2018-01-31T09:39:05.715Z,1440.00
2018-01-31T09:40:05.727Z,1508.00
2018-01-31T09:41:05.761Z,1704.00
2018-01-31T09:42:05.776Z,1424.00
2018-01-31T09:43:05.812Z,1244.00
2018-01-31T09:44:05.813Z,1284.00
2018-01-31T09:45:05.859Z,1292.00
2018-01-31T09:46:05.848Z,1340.00
2018-01-31T09:47:05.860Z,1208.00
2018-01-31T09:48:05.885Z,1164.00
2018-01-31T09:49:05.901Z,1084.00
2018-01-31T09:50:05.923Z,1212.00
2018-01-31T09:51:05.935Z,1136.00
2018-01-31T09:52:05.956Z,952.00
2018-01-31T09:53:06.014Z,816.00
2018-01-31T09:54:06.005Z,904.00
2018-01-31T09:55:06.014Z,884.00
2018-01-31T09:56:06.028Z,848.00
2018-01-31T09:57:06.047Z,800.00
2018-01-31T09:58:06.076Z,732.00
2018-01-31T09:59:06.138Z,764.00
2018-01-31T10:00:06.106Z,848.00
2018-01-31T10:01:06.202Z,812.00
2018-01-31T10:02:07.039Z,772.00
2018-01-31T10:03:06.210Z,740.00
2018-01-31T10:04:06.213Z,720.00
2018-01-31T10:05:06.207Z,764.00
2018-01-31T10:06:06.270Z,828.00
2018-01-31T10:07:06.234Z,748.00
2018-01-31T10:08:06.355Z,864.00
2018-01-31T10:09:06.352Z,752.00
2018-01-31T10:10:06.287Z,820.00
2018-01-31T10:11:06.306Z,904.00
2018-01-31T10:12:06.347Z,948.00
2018-01-31T10:13:06.350Z,976.00
2018-01-31T10:14:06.596Z,1008.00
2018-01-31T10:15:06.385Z,872.00
2018-01-31T10:16:06.437Z,804.00
2018-01-31T10:17:06.428Z,808.00
2018-01-31T10:18:06.450Z,840.00
2018-01-31T10:19:06.488Z,992.00
2018-01-31T10:20:06.496Z,1080.00
2018-01-31T10:21:06.534Z,1156.00
2018-01-31T10:22:06.601Z,1108.00
2018-01-31T10:23:06.538Z,1364.00
2018-01-31T10:24:06.853Z,1044.00
2018-01-31T10:25:06.575Z,848.00
2018-01-31T10:26:08.187Z,1024.00
2018-01-31T10:27:06.615Z,1156.00
2018-01-31T10:28:06.622Z,1204.00
2018-01-31T10:29:06.645Z,1084.00
2018-01-31T10:30:06.663Z,1044.00
2018-01-31T10:31:06.682Z,836.00
2018-01-31T10:32:06.709Z,632.00
2018-01-31T10:33:06.716Z,544.00
2018-01-31T10:34:06.735Z,604.00
2018-01-31T10:35:06.764Z,600.00
2018-01-31T10:36:06.780Z,600.00
2018-01-31T10:37:06.788Z,644.00
2018-01-31T10:38:06.837Z,748.00
2018-01-31T10:39:06.839Z,660.00
2018-01-31T10:40:06.895Z,672.00
2018-01-31T10:41:06.862Z,756.00
2018-01-31T10:42:06.881Z,732.00
2018-01-31T10:43:06.899Z,764.00
2018-01-31T10:44:06.922Z,788.00
2018-01-31T10:45:06.949Z,876.00
2018-01-31T10:46:06.986Z,892.00
2018-01-31T10:47:06.986Z,972.00
2018-01-31T10:48:07.006Z,916.00
2018-01-31T10:49:07.037Z,828.00
2018-01-31T10:50:07.057Z,952.00
2018-01-31T10:51:07.053Z,896.00
2018-01-31T10:52:07.065Z,948.00
2018-01-31T10:53:07.080Z,1076.00
2018-01-31T10:57:29.032Z,1344.00
2018-01-31T10:58:07.176Z,1276.00
2018-01-31T10:59:07.194Z,1176.00
2018-01-31T11:00:07.223Z,1100.00
2018-01-31T11:01:07.243Z,1004.00
2018-01-31T11:02:07.271Z,924.00
2018-01-31T11:03:07.334Z,832.00
2018-01-31T11:04:07.401Z,780.00
2018-01-31T11:05:07.516Z,748.00
2018-01-31T11:06:07.334Z,852.00
2018-01-31T11:07:07.342Z,1060.00
2018-01-31T11:08:08.312Z,920.00
2018-01-31T11:09:07.410Z,1004.00
2018-01-31T11:10:07.602Z,796.00
2018-01-31T11:11:07.421Z,868.00
2018-01-31T11:12:07.430Z,768.00
2018-01-31T11:13:07.473Z,832.00
2018-01-31T11:14:07.488Z,824.00
2018-01-31T11:15:07.490Z,820.00
2018-01-31T11:16:07.547Z,764.00
2018-01-31T11:17:07.527Z,920.00
2018-01-31T11:18:07.539Z,1060.00
2018-01-31T11:19:07.582Z,968.00
2018-01-31T11:20:07.595Z,832.00
2018-01-31T11:21:07.667Z,644.00
2018-01-31T11:22:07.678Z,688.00
2018-01-31T11:23:07.739Z,784.00
2018-01-31T11:24:07.696Z,764.00
2018-01-31T11:25:07.664Z,656.00
2018-01-31T11:26:07.723Z,572.00
2018-01-31T11:27:07.720Z,568.00
2018-01-31T11:28:07.779Z,560.00
2018-01-31T11:29:07.794Z,516.00
2018-01-31T11:30:07.792Z,576.00
2018-01-31T11:31:07.790Z,552.00
2018-01-31T11:32:07.942Z,524.00
2018-01-31T11:33:07.870Z,532.00
2018-01-31T11:34:07.889Z,524.00
2018-01-31T11:35:07.921Z,592.00
2018-01-31T11:36:07.970Z,624.00
2018-01-31T11:37:07.935Z,688.00
2018-01-31T11:38:07.966Z,940.00
2018-01-31T11:39:07.915Z,896.00
2018-01-31T11:40:07.969Z,672.00
2018-01-31T11:41:08.011Z,652.00
2018-01-31T11:42:08.028Z,1036.00
2018-01-31T11:43:08.054Z,1008.00
2018-01-31T11:44:08.032Z,1008.00
2018-01-31T11:45:08.061Z,872.00
2018-01-31T11:46:08.083Z,876.00
2018-01-31T11:47:08.133Z,864.00
2018-01-31T11:48:08.090Z,1264.00
2018-01-31T11:49:08.107Z,1376.00
2018-01-31T11:50:08.124Z,1176.00
2018-01-31T11:51:08.135Z,680.00
2018-01-31T11:52:08.153Z,500.00
2018-01-31T11:53:08.175Z,544.00
2018-01-31T11:54:08.194Z,672.00
2018-01-31T11:55:08.211Z,720.00
2018-01-31T11:56:08.230Z,860.00
2018-01-31T11:57:08.266Z,720.00
2018-01-31T11:58:08.261Z,648.00
2018-01-31T11:59:08.289Z,956.00
2018-01-31T12:00:08.298Z,872.00
2018-01-31T12:01:08.320Z,824.00
2018-01-31T12:02:08.340Z,972.00
2018-01-31T12:03:08.356Z,988.00
2018-01-31T12:04:08.375Z,1160.00
2018-01-31T12:05:08.414Z,1116.00
2018-01-31T12:06:08.413Z,1052.00
2018-01-31T12:07:08.598Z,1272.00
2018-01-31T12:08:08.578Z,1356.00
2018-01-31T12:09:08.668Z,1208.00
2018-01-31T12:10:08.653Z,1392.00
2018-01-31T12:11:08.504Z,1220.00
2018-01-31T12:12:08.515Z,1000.00
2018-01-31T12:13:08.545Z,972.00
2018-01-31T12:14:08.556Z,984.00
2018-01-31T12:15:08.590Z,1000.00
2018-01-31T12:16:08.587Z,936.00
2018-01-31T12:17:08.608Z,916.00
2018-01-31T12:18:08.630Z,964.00
2018-01-31T12:19:08.651Z,1016.00
2018-01-31T12:20:08.676Z,992.00
2018-01-31T12:21:08.688Z,976.00
2018-01-31T12:22:08.705Z,944.00
2018-01-31T12:23:08.720Z,984.00
2018-01-31T12:24:08.740Z,944.00
2018-01-31T12:25:08.827Z,904.00
2018-01-31T12:26:08.774Z,876.00
2018-01-31T12:27:08.792Z,928.00
2018-01-31T12:28:08.817Z,892.00
2018-01-31T12:29:08.855Z,844.00
2018-01-31T12:30:08.848Z,832.00
2018-01-31T12:31:08.869Z,728.00
2018-01-31T12:32:08.882Z,712.00
2018-01-31T12:33:08.959Z,684.00
2018-01-31T12:34:09.021Z,652.00
2018-01-31T12:35:08.934Z,764.00
2018-01-31T12:36:08.956Z,892.00
2018-01-31T12:37:08.988Z,1016.00
2018-01-31T12:38:09.001Z,884.00
2018-01-31T12:39:09.008Z,868.00
2018-01-31T12:40:09.025Z,872.00
2018-01-31T12:41:09.059Z,1100.00
2018-01-31T12:42:09.475Z,1012.00
2018-01-31T12:43:09.089Z,984.00
2018-01-31T12:44:09.106Z,1068.00
2018-01-31T12:45:09.109Z,996.00
2018-01-31T12:46:09.131Z,1036.00
2018-01-31T12:47:09.151Z,1100.00
2018-01-31T12:48:09.170Z,1100.00
2018-01-31T12:49:09.196Z,1104.00
2018-01-31T12:50:09.223Z,1096.00
2018-01-31T12:51:09.222Z,1088.00
2018-01-31T12:52:09.235Z,1116.00
2018-01-31T12:53:09.255Z,1156.00
2018-01-31T12:54:09.270Z,1188.00
2018-01-31T12:55:09.304Z,1200.00
2018-01-31T12:56:09.310Z,1176.00
2018-01-31T12:57:09.374Z,1140.00
2018-01-31T12:58:09.381Z,1112.00
2018-01-31T12:59:09.369Z,1104.00
2018-01-31T13:00:09.642Z,1088.00
2018-01-31T13:01:09.422Z,1080.00
2018-01-31T13:02:09.415Z,1064.00
2018-01-31T13:03:09.431Z,1040.00
2018-01-31T13:04:09.445Z,1024.00
2018-01-31T13:05:09.468Z,1032.00
2018-01-31T13:06:09.486Z,1052.00
2018-01-31T13:07:09.514Z,1084.00
2018-01-31T13:08:09.521Z,1092.00
2018-01-31T13:09:09.552Z,1068.00
2018-01-31T13:10:09.556Z,976.00
2018-01-31T13:11:09.569Z,944.00
2018-01-31T13:12:09.595Z,1032.00
2018-01-31T13:13:09.603Z,976.00
2018-01-31T13:14:09.625Z,984.00
2018-01-31T13:15:09.650Z,968.00
2018-01-31T13:16:09.665Z,968.00
2018-01-31T13:17:09.679Z,948.00
2018-01-31T13:18:09.702Z,908.00
2018-01-31T13:19:09.719Z,944.00
2018-01-31T13:20:09.728Z,956.00
2018-01-31T13:21:09.750Z,924.00
2018-01-31T13:22:09.769Z,980.00
2018-01-31T13:23:09.786Z,968.00
2018-01-31T13:24:09.801Z,1084.00
2018-01-31T13:25:09.820Z,1112.00
2018-01-31T13:26:09.841Z,932.00
2018-01-31T13:27:09.856Z,948.00
2018-01-31T13:28:09.879Z,824.00
2018-01-31T13:29:09.893Z,924.00
2018-01-31T13:30:09.910Z,988.00
2018-01-31T13:31:09.928Z,996.00
2018-01-31T13:32:09.946Z,1176.00
2018-01-31T13:33:09.962Z,1072.00
2018-01-31T13:34:09.979Z,1076.00
2018-01-31T13:35:09.997Z,1156.00
2018-01-31T13:36:10.020Z,1048.00
2018-01-31T13:37:10.034Z,1040.00
2018-01-31T13:38:10.048Z,1196.00
2018-01-31T13:39:10.068Z,1212.00
2018-01-31T13:40:10.088Z,1168.00
2018-01-31T13:41:10.112Z,1016.00
2018-01-31T13:42:10.122Z,960.00
2018-01-31T13:43:10.139Z,1012.00
2018-01-31T13:44:10.185Z,1044.00
2018-01-31T13:45:10.173Z,992.00
2018-01-31T13:46:10.192Z,660.00
2018-01-31T13:47:10.212Z,708.00
2018-01-31T13:48:10.228Z,744.00
2018-01-31T13:49:10.247Z,588.00
2018-01-31T13:50:10.273Z,512.00
2018-01-31T13:51:10.286Z,448.00
2018-01-31T13:52:10.299Z,436.00
2018-01-31T13:53:10.318Z,372.00
2018-01-31T13:54:10.328Z,296.00
2018-01-31T13:55:10.352Z,272.00
2018-01-31T13:56:10.370Z,416.00
2018-01-31T13:57:10.384Z,312.00
2018-01-31T13:58:10.404Z,384.00
2018-01-31T13:59:10.420Z,492.00
2018-01-31T14:00:10.438Z,488.00
2018-01-31T14:01:10.456Z,496.00
2018-01-31T14:02:10.475Z,504.00
2018-01-31T14:03:10.496Z,516.00
2018-01-31T14:04:10.508Z,584.00
2018-01-31T14:05:10.528Z,588.00
2018-01-31T14:06:10.546Z,600.00
2018-01-31T14:07:10.564Z,628.00
2018-01-31T14:08:10.581Z,604.00
2018-01-31T14:09:10.595Z,604.00
2018-01-31T14:10:10.616Z,584.00
2018-01-31T14:11:10.637Z,576.00
2018-01-31T14:12:10.650Z,552.00
2018-01-31T14:13:10.708Z,576.00
2018-01-31T14:14:10.684Z,616.00
2018-01-31T14:15:10.702Z,640.00
2018-01-31T14:16:10.720Z,672.00
2018-01-31T14:17:10.746Z,692.00
2018-01-31T14:18:10.751Z,712.00
2018-01-31T14:19:10.763Z,720.00
2018-01-31T14:20:10.780Z,700.00
2018-01-31T14:21:10.801Z,672.00
2018-01-31T14:22:10.814Z,648.00
2018-01-31T14:23:10.836Z,624.00
2018-01-31T14:24:10.853Z,612.00
2018-01-31T14:25:10.882Z,600.00
2018-01-31T14:26:10.891Z,588.00
2018-01-31T14:27:10.919Z,576.00
2018-01-31T14:28:10.923Z,544.00
2018-01-31T14:29:10.941Z,532.00
2018-01-31T14:30:10.956Z,532.00
2018-01-31T14:31:10.971Z,532.00
2018-01-31T14:32:10.993Z,544.00
2018-01-31T14:33:11.007Z,548.00
2018-01-31T14:34:11.026Z,532.00
2018-01-31T14:35:11.040Z,508.00
2018-01-31T14:36:11.058Z,512.00
2018-01-31T14:37:11.078Z,528.00
2018-01-31T14:38:11.095Z,528.00
2018-01-31T14:39:11.102Z,528.00
2018-01-31T14:40:11.124Z,524.00
2018-01-31T14:41:11.141Z,528.00
2018-01-31T14:42:11.158Z,536.00
2018-01-31T14:43:11.179Z,548.00
2018-01-31T14:44:11.193Z,572.00
2018-01-31T14:45:11.210Z,576.00
2018-01-31T14:46:11.227Z,552.00
2018-01-31T14:47:11.242Z,504.00
2018-01-31T14:48:11.260Z,464.00
2018-01-31T14:49:11.277Z,444.00
2018-01-31T14:50:11.292Z,444.00
2018-01-31T14:51:11.312Z,452.00
2018-01-31T14:52:11.329Z,448.00
2018-01-31T14:53:11.344Z,448.00
2018-01-31T14:54:11.362Z,440.00
2018-01-31T14:55:11.378Z,436.00
2018-01-31T14:56:11.394Z,432.00
2018-01-31T14:57:11.411Z,428.00
2018-01-31T14:58:11.429Z,432.00
2018-01-31T14:59:11.445Z,444.00
2018-01-31T15:00:11.461Z,464.00
2018-01-31T15:01:11.522Z,488.00
2018-01-31T15:02:11.503Z,504.00
2018-01-31T15:03:11.512Z,512.00
2018-01-31T15:04:11.528Z,512.00
2018-01-31T15:05:11.547Z,508.00
2018-01-31T15:06:11.568Z,492.00
2018-01-31T15:07:11.582Z,464.00
2018-01-31T15:08:11.592Z,432.00
2018-01-31T15:09:11.613Z,424.00
2018-01-31T15:10:11.626Z,420.00
2018-01-31T15:11:11.652Z,444.00
2018-01-31T15:12:11.658Z,456.00
2018-01-31T15:13:11.680Z,468.00
2018-01-31T15:14:11.725Z,480.00
2018-01-31T15:15:11.715Z,464.00
2018-01-31T15:16:11.727Z,416.00
2018-01-31T15:17:11.747Z,368.00